createdAt,value
2022-12-10T00:00:46.675Z,22.10
2022-12-10T00:03:22.349Z,20.60
2022-12-10T00:05:54.440Z,22.50
2022-12-10T00:08:26.610Z,21.00
2022-12-10T00:10:59.137Z,21.60
2022-12-10T00:13:31.253Z,21.90
2022-12-10T00:16:04.847Z,21.70
2022-12-10T00:18:38.739Z,24.00
2022-12-10T00:21:12.723Z,23.70
2022-12-10T00:23:44.844Z,21.50
2022-12-10T00:26:18.717Z,21.00
2022-12-10T00:28:51.814Z,22.20
2022-12-10T00:31:26.551Z,23.10
2022-12-10T00:34:00.350Z,24.30
2022-12-10T00:36:35.050Z,22.60
2022-12-10T00:39:08.243Z,21.90
2022-12-10T00:41:40.718Z,19.90
2022-12-10T00:44:13.506Z,22.00
2022-12-10T00:46:46.028Z,19.60
2022-12-10T00:49:18.093Z,23.40
2022-12-10T00:51:50.185Z,23.00
2022-12-10T00:54:22.328Z,23.00
2022-12-10T00:56:54.590Z,22.60
2022-12-10T00:59:26.718Z,21.10
2022-12-10T01:01:59.472Z,20.60
2022-12-10T01:04:31.769Z,26.10
2022-12-10T01:07:08.196Z,23.40
2022-12-10T01:09:43.272Z,20.80
2022-12-10T01:12:15.493Z,20.40
2022-12-10T01:14:47.614Z,22.00
2022-12-10T01:17:22.030Z,19.20
2022-12-10T01:19:54.148Z,17.70
2022-12-10T01:22:26.264Z,21.20
2022-12-10T01:24:58.791Z,19.50
2022-12-10T01:27:30.958Z,19.90
2022-12-10T01:30:03.462Z,21.20
2022-12-10T01:32:35.603Z,22.30
2022-12-10T01:35:08.516Z,22.70
2022-12-10T01:37:40.706Z,19.80
2022-12-10T01:40:15.209Z,20.80
2022-12-10T01:42:47.447Z,22.50
2022-12-10T01:45:21.155Z,21.90
2022-12-10T01:47:53.348Z,21.40
2022-12-10T01:50:25.695Z,22.40
2022-12-10T01:52:57.786Z,19.10
2022-12-10T01:55:50.642Z,21.60
2022-12-10T01:58:23.041Z,22.40
2022-12-10T02:01:07.137Z,22.90
2022-12-10T02:03:49.421Z,23.60
2022-12-10T02:06:33.390Z,20.90
2022-12-10T02:09:15.673Z,16.60
2022-12-10T02:11:53.237Z,17.60
2022-12-10T02:14:32.268Z,15.70
2022-12-10T02:17:09.204Z,16.80
2022-12-10T02:19:58.669Z,18.60
2022-12-10T02:22:36.549Z,27.70
2022-12-10T02:25:13.323Z,24.50
2022-12-10T02:27:54.682Z,22.10
2022-12-10T02:30:27.338Z,19.20
2022-12-10T02:33:02.577Z,20.00
2022-12-10T02:35:39.682Z,19.50
2022-12-10T02:38:18.024Z,18.40
2022-12-10T02:40:54.396Z,17.40
2022-12-10T02:43:29.247Z,15.90
2022-12-10T02:46:05.079Z,15.70
2022-12-10T02:48:39.421Z,17.30
2022-12-10T02:51:11.639Z,18.00
2022-12-10T02:53:47.469Z,17.40
2022-12-10T02:56:29.032Z,15.70
2022-12-10T02:59:17.253Z,16.00
2022-12-10T03:01:59.198Z,17.70
2022-12-10T03:04:38.485Z,19.70
2022-12-10T03:07:16.642Z,16.90
2022-12-10T03:09:54.239Z,16.10
2022-12-10T03:12:31.733Z,15.20
2022-12-10T03:15:07.434Z,15.60
2022-12-10T03:17:41.887Z,15.00
2022-12-10T03:20:17.682Z,14.50
2022-12-10T03:22:51.257Z,15.30
2022-12-10T03:25:27.095Z,15.90
2022-12-10T03:28:01.302Z,18.30
2022-12-10T03:30:38.439Z,17.70
2022-12-10T03:33:10.834Z,19.50
2022-12-10T03:35:43.901Z,16.90
2022-12-10T03:38:16.479Z,16.80
2022-12-10T03:40:48.566Z,18.10
2022-12-10T03:43:20.610Z,18.70
2022-12-10T03:45:52.759Z,18.10
2022-12-10T03:48:24.846Z,17.90
2022-12-10T03:50:56.910Z,19.30
2022-12-10T03:53:29.106Z,18.60
2022-12-10T03:56:01.255Z,17.90
2022-12-10T03:58:33.415Z,20.40
2022-12-10T04:01:05.708Z,23.70
2022-12-10T04:03:40.087Z,23.00
2022-12-10T04:06:15.541Z,23.50
2022-12-10T04:08:50.924Z,23.00
2022-12-10T04:11:25.417Z,24.20
2022-12-10T04:14:15.432Z,20.90
2022-12-10T04:16:47.528Z,23.00
2022-12-10T04:19:20.687Z,22.40
2022-12-10T04:22:10.546Z,22.00
2022-12-10T04:25:00.352Z,23.30
2022-12-10T04:27:35.037Z,21.20
2022-12-10T04:30:11.119Z,20.10
2022-12-10T04:32:43.572Z,20.40
2022-12-10T04:35:15.837Z,18.90
2022-12-10T04:37:47.903Z,18.40
2022-12-10T04:40:20.114Z,18.80
2022-12-10T04:42:52.184Z,18.80
2022-12-10T04:45:24.557Z,19.30
2022-12-10T04:47:56.572Z,19.70
2022-12-10T04:50:29.606Z,19.10
2022-12-10T04:53:01.727Z,42.20
2022-12-10T04:55:33.819Z,37.90
2022-12-10T04:58:05.885Z,33.70
2022-12-10T05:00:37.926Z,61.20
2022-12-10T05:03:10.071Z,44.70
2022-12-10T05:05:42.163Z,30.50
2022-12-10T05:08:14.396Z,21.60
2022-12-10T05:10:46.522Z,18.20
2022-12-10T05:13:18.972Z,19.20
2022-12-10T05:15:51.106Z,34.30
2022-12-10T05:18:23.230Z,26.30
2022-12-10T05:20:55.578Z,21.10
2022-12-10T05:23:30.796Z,29.70
2022-12-10T05:26:05.342Z,38.70
2022-12-10T05:28:39.429Z,29.20
2022-12-10T05:31:17.764Z,35.20
2022-12-10T05:33:50.934Z,30.00
2022-12-10T05:36:24.459Z,40.00
2022-12-10T05:38:57.855Z,33.90
2022-12-10T05:41:35.784Z,41.60
2022-12-10T05:44:08.903Z,33.40
2022-12-10T05:46:41.085Z,40.00
2022-12-10T05:49:13.567Z,57.90
2022-12-10T05:51:45.686Z,57.60
2022-12-10T05:54:17.776Z,30.30
2022-12-10T05:56:49.920Z,30.60
2022-12-10T05:59:22.101Z,22.10
2022-12-10T06:01:54.206Z,36.70
2022-12-10T06:04:26.377Z,38.00
2022-12-10T06:06:58.466Z,37.00
2022-12-10T06:09:30.555Z,56.50
2022-12-10T06:12:02.651Z,76.20
2022-12-10T06:14:35.301Z,66.50
2022-12-10T06:17:07.443Z,64.80
2022-12-10T06:19:39.510Z,61.70
2022-12-10T06:22:11.609Z,67.20
2022-12-10T06:24:43.744Z,59.30
2022-12-10T06:27:15.937Z,52.00
2022-12-10T06:29:48.203Z,68.10
2022-12-10T06:32:20.299Z,61.40
2022-12-10T06:34:52.425Z,60.40
2022-12-10T06:37:24.507Z,50.50
2022-12-10T06:39:56.756Z,51.30
2022-12-10T06:42:28.952Z,50.60
2022-12-10T06:45:01.140Z,59.60
2022-12-10T06:47:33.615Z,53.70
2022-12-10T06:50:07.239Z,40.50
2022-12-10T06:52:39.564Z,52.70
2022-12-10T06:55:12.141Z,45.00
2022-12-10T06:57:44.619Z,36.50
2022-12-10T07:00:21.976Z,31.20
2022-12-10T07:02:54.564Z,38.40
2022-12-10T07:05:26.885Z,31.90
2022-12-10T07:07:59.015Z,29.10
2022-12-10T07:10:32.090Z,31.30
2022-12-10T07:13:04.205Z,38.80
2022-12-10T07:15:36.706Z,38.70
2022-12-10T07:18:09.287Z,31.20
2022-12-10T07:20:41.402Z,41.10
2022-12-10T07:23:13.800Z,44.30
2022-12-10T07:25:45.894Z,34.80
2022-12-10T07:28:18.086Z,31.40
2022-12-10T07:30:50.178Z,220.50
2022-12-10T07:33:22.319Z,88.60
2022-12-10T07:35:54.642Z,54.50
2022-12-10T07:38:27.015Z,39.60
2022-12-10T07:40:59.134Z,39.00
2022-12-10T07:43:31.197Z,39.10
2022-12-10T07:46:09.253Z,301.70
2022-12-10T07:48:42.931Z,97.50
2022-12-10T07:51:16.761Z,84.70
2022-12-10T07:53:49.445Z,59.70
2022-12-10T07:56:22.712Z,46.40
2022-12-10T07:58:55.423Z,40.40
2022-12-10T08:01:28.618Z,33.40
2022-12-10T08:04:00.781Z,41.00
2022-12-10T08:06:32.983Z,37.30
2022-12-10T08:09:05.146Z,37.70
2022-12-10T08:11:37.217Z,35.00
2022-12-10T08:14:09.708Z,32.80
2022-12-10T08:16:41.780Z,25.90
2022-12-10T08:19:20.963Z,28.50
2022-12-10T08:21:54.534Z,28.00
2022-12-10T08:24:26.649Z,30.80
2022-12-10T08:26:58.695Z,25.50
2022-12-10T08:29:30.832Z,29.50
2022-12-10T08:32:03.018Z,24.90
2022-12-10T08:34:35.323Z,25.80
2022-12-10T08:37:12.044Z,23.40
2022-12-10T08:39:44.577Z,26.10
2022-12-10T08:42:16.920Z,21.80
2022-12-10T08:44:49.013Z,23.30
2022-12-10T08:47:21.769Z,19.90
2022-12-10T08:49:53.863Z,22.70
2022-12-10T08:52:26.081Z,31.00
2022-12-10T08:54:58.405Z,44.40
2022-12-10T08:57:30.520Z,58.30
2022-12-10T09:00:02.719Z,53.90
2022-12-10T09:02:35.232Z,92.00
2022-12-10T09:05:09.154Z,112.20
2022-12-10T09:07:41.295Z,119.40
2022-12-10T09:10:14.407Z,81.00
2022-12-10T09:12:46.550Z,73.80
2022-12-10T09:15:18.875Z,34.90
2022-12-10T09:17:51.066Z,24.90
2022-12-10T09:20:23.136Z,24.70
2022-12-10T09:22:55.249Z,28.20
2022-12-10T09:25:27.748Z,29.10
2022-12-10T09:27:59.841Z,26.20
2022-12-10T09:30:32.009Z,40.50
2022-12-10T09:33:04.697Z,31.30
2022-12-10T09:35:36.806Z,32.20
2022-12-10T09:38:09.281Z,30.40
2022-12-10T09:40:47.442Z,33.80
2022-12-10T09:43:25.804Z,33.00
2022-12-10T09:46:08.837Z,25.80
2022-12-10T09:48:55.183Z,27.50
2022-12-10T09:51:31.033Z,28.10
2022-12-10T09:54:05.256Z,30.40
2022-12-10T09:56:41.018Z,32.80
2022-12-10T09:59:20.522Z,31.80
2022-12-10T10:02:01.699Z,41.60
2022-12-10T10:04:33.915Z,40.10
2022-12-10T10:07:08.771Z,33.80
2022-12-10T10:09:43.688Z,27.10
2022-12-10T10:14:48.398Z,30.30
2022-12-10T10:17:31.357Z,40.80
2022-12-10T10:20:05.767Z,48.40
2022-12-10T10:22:37.832Z,45.10
2022-12-10T10:25:18.271Z,39.50
2022-12-10T10:27:50.284Z,35.00
2022-12-10T10:30:25.457Z,31.40
2022-12-10T10:32:59.714Z,27.50
2022-12-10T10:35:35.569Z,24.10
2022-12-10T10:38:16.005Z,22.20
2022-12-10T10:40:53.222Z,24.40
2022-12-10T10:43:28.955Z,21.20
2022-12-10T10:46:05.933Z,18.70
2022-12-10T10:48:38.148Z,19.70
2022-12-10T10:51:19.760Z,24.60
2022-12-10T10:53:53.850Z,24.60
2022-12-10T10:56:27.607Z,23.50
2022-12-10T10:59:03.971Z,23.90
2022-12-10T11:01:49.914Z,26.20
2022-12-10T11:04:30.297Z,24.40
2022-12-10T11:07:05.564Z,34.80
2022-12-10T11:09:39.628Z,36.30
2022-12-10T11:12:32.198Z,29.90
2022-12-10T11:15:16.166Z,29.00
2022-12-10T11:17:53.175Z,26.40
2022-12-10T11:20:28.796Z,28.70
2022-12-10T11:23:03.245Z,30.70
2022-12-10T11:25:46.190Z,33.40
2022-12-10T11:28:34.869Z,39.60
2022-12-10T11:31:25.189Z,38.10
2022-12-10T11:34:07.673Z,35.70
2022-12-10T11:36:46.729Z,36.60
2022-12-10T11:39:35.214Z,38.50
2022-12-10T11:42:14.977Z,34.30
2022-12-10T11:44:56.129Z,39.90
2022-12-10T11:47:44.836Z,61.70
2022-12-10T11:50:27.806Z,52.90
2022-12-10T11:53:22.888Z,87.70
2022-12-10T11:56:06.218Z,55.50
2022-12-10T11:58:54.797Z,36.70
2022-12-10T12:01:38.281Z,28.00
2022-12-10T12:04:26.446Z,28.80
2022-12-10T12:07:11.137Z,34.60
2022-12-10T12:09:56.664Z,39.20
2022-12-10T12:12:37.665Z,26.70
2022-12-10T12:15:21.410Z,25.00
2022-12-10T12:17:58.642Z,40.00
2022-12-10T12:20:34.599Z,48.90
2022-12-10T12:23:17.730Z,39.60
2022-12-10T12:25:53.887Z,46.10
2022-12-10T12:28:32.542Z,28.60
2022-12-10T12:31:08.149Z,27.90
2022-12-10T12:33:47.390Z,25.70
2022-12-10T12:36:23.426Z,29.30
2022-12-10T12:39:00.815Z,25.60
2022-12-10T12:41:42.198Z,27.40
2022-12-10T12:44:21.895Z,51.30
2022-12-10T12:46:54.845Z,42.80
2022-12-10T12:49:32.590Z,48.30
2022-12-10T12:52:09.967Z,33.30
2022-12-10T12:54:42.981Z,28.30
2022-12-10T12:57:23.938Z,29.70
2022-12-10T13:00:04.240Z,32.60
2022-12-10T13:02:51.080Z,29.50
2022-12-10T13:05:30.108Z,26.60
2022-12-10T13:08:33.819Z,26.80
2022-12-10T13:11:31.332Z,28.00
2022-12-10T13:14:32.681Z,32.80
2022-12-10T13:17:25.582Z,43.70
2022-12-10T13:20:18.334Z,54.90
2022-12-10T13:22:59.923Z,606.70
2022-12-10T13:25:59.010Z,219.90
2022-12-10T13:28:42.761Z,618.60
2022-12-10T13:31:36.503Z,578.30
2022-12-10T13:34:32.412Z,291.40
2022-12-10T13:40:02.885Z,76.40
2022-12-10T13:42:54.739Z,57.70
2022-12-10T13:45:36.917Z,48.30
2022-12-10T13:48:33.341Z,36.80
2022-12-10T13:51:25.952Z,37.30
2022-12-10T13:54:18.521Z,33.00
2022-12-10T13:57:01.675Z,33.20
2022-12-10T13:59:44.095Z,60.20
2022-12-10T14:02:34.856Z,54.30
2022-12-10T14:05:29.893Z,73.80
2022-12-10T14:08:04.707Z,36.60
2022-12-10T14:10:38.989Z,29.10
2022-12-10T14:13:15.458Z,31.60
2022-12-10T14:15:55.384Z,23.90
2022-12-10T14:18:29.297Z,22.60
2022-12-10T14:21:05.660Z,26.60
2022-12-10T14:23:48.653Z,20.60
2022-12-10T14:26:29.685Z,25.80
2022-12-10T14:29:12.399Z,23.30
2022-12-10T14:31:50.083Z,26.20
2022-12-10T14:34:27.154Z,29.90
2022-12-10T14:37:04.339Z,39.70
2022-12-10T14:39:40.555Z,39.90
2022-12-10T14:42:18.352Z,42.80
2022-12-10T14:44:58.559Z,38.70
2022-12-10T14:47:34.695Z,29.80
2022-12-10T14:50:12.495Z,24.90
2022-12-10T14:52:46.784Z,31.40
2022-12-10T14:55:22.197Z,32.40
2022-12-10T14:57:58.932Z,39.30
2022-12-10T15:00:31.488Z,57.00
2022-12-10T15:03:10.545Z,63.00
2022-12-10T15:05:42.858Z,150.60
2022-12-10T15:08:19.948Z,90.50
2022-12-10T15:10:56.955Z,108.30
2022-12-10T15:13:41.023Z,93.50
2022-12-10T15:16:21.096Z,62.20
2022-12-10T15:18:55.907Z,61.00
2022-12-10T15:21:28.716Z,51.70
2022-12-10T15:24:18.958Z,77.00
2022-12-10T15:26:52.819Z,36.40
2022-12-10T15:29:36.995Z,21.90
2022-12-10T15:32:16.387Z,20.50
2022-12-10T15:34:51.285Z,21.70
2022-12-10T15:37:26.762Z,24.80
2022-12-10T15:40:02.331Z,20.10
2022-12-10T15:42:41.972Z,18.30
2022-12-10T15:45:27.021Z,26.70
2022-12-10T15:48:00.876Z,22.90
2022-12-10T15:50:33.173Z,18.70
2022-12-10T15:53:05.447Z,18.60
2022-12-10T15:55:37.534Z,18.70
2022-12-10T15:58:14.799Z,16.20
2022-12-10T16:00:47.937Z,20.60
2022-12-10T16:03:20.766Z,23.20
2022-12-10T16:05:52.889Z,19.60
2022-12-10T16:08:28.101Z,20.20
2022-12-10T16:11:05.162Z,19.20
2022-12-10T16:13:41.479Z,20.40
2022-12-10T16:16:14.610Z,23.70
2022-12-10T16:18:47.000Z,22.70
2022-12-10T16:21:19.467Z,21.40
2022-12-10T16:23:51.690Z,28.90
2022-12-10T16:26:24.979Z,20.70
2022-12-10T16:28:57.045Z,18.20
2022-12-10T16:31:29.153Z,20.70
2022-12-10T16:34:01.436Z,18.30
2022-12-10T16:36:33.832Z,20.10
2022-12-10T16:39:06.769Z,18.90
2022-12-10T16:41:39.270Z,21.20
2022-12-10T16:44:11.643Z,23.60
2022-12-10T16:46:43.784Z,19.30
2022-12-10T16:49:15.935Z,20.70
2022-12-10T16:51:48.032Z,21.60
2022-12-10T16:54:20.213Z,23.80
2022-12-10T16:56:52.303Z,23.40
2022-12-10T16:59:24.728Z,21.30
2022-12-10T17:01:56.920Z,23.20
2022-12-10T17:04:29.193Z,16.80
2022-12-10T17:07:01.309Z,21.10
2022-12-10T17:09:33.408Z,20.20
2022-12-10T17:12:06.665Z,22.10
2022-12-10T17:14:42.397Z,19.60
2022-12-10T17:17:15.277Z,15.90
2022-12-10T17:19:47.375Z,18.60
2022-12-10T17:22:19.517Z,19.30
2022-12-10T17:24:51.658Z,18.70
2022-12-10T17:27:24.440Z,24.20
2022-12-10T17:29:57.862Z,18.30
2022-12-10T17:32:30.810Z,17.80
2022-12-10T17:35:02.867Z,17.70
2022-12-10T17:37:35.981Z,14.90
2022-12-10T17:40:16.931Z,17.30
2022-12-10T17:42:49.713Z,16.90
2022-12-10T17:45:22.952Z,18.20
2022-12-10T17:47:55.252Z,17.30
2022-12-10T17:50:32.592Z,16.80
2022-12-10T17:53:06.680Z,22.90
2022-12-10T17:55:42.625Z,24.60
2022-12-10T17:58:21.529Z,20.90
2022-12-10T18:00:54.659Z,20.70
2022-12-10T18:03:26.847Z,22.30
2022-12-10T18:05:59.043Z,19.40
2022-12-10T18:08:31.231Z,21.90
2022-12-10T18:11:03.457Z,19.60
2022-12-10T18:13:35.572Z,22.50
2022-12-10T18:16:12.234Z,18.80
2022-12-10T18:18:44.922Z,28.20
2022-12-10T18:21:19.531Z,24.90
2022-12-10T18:23:51.847Z,18.40
2022-12-10T18:26:26.986Z,19.00
2022-12-10T18:29:01.330Z,16.70
2022-12-10T18:31:36.032Z,17.40
2022-12-10T18:34:12.219Z,20.20
2022-12-10T18:36:46.617Z,22.40
2022-12-10T18:39:21.885Z,23.30
2022-12-10T18:41:54.970Z,30.40
2022-12-10T18:44:30.287Z,33.60
2022-12-10T18:47:02.383Z,30.20
2022-12-10T18:49:34.522Z,32.70
2022-12-10T18:52:07.713Z,28.50
2022-12-10T18:54:41.168Z,31.20
2022-12-10T19:00:17.935Z,34.50
2022-12-10T19:02:50.399Z,33.40
2022-12-10T19:05:22.603Z,36.80
2022-12-10T19:07:54.857Z,52.80
2022-12-10T19:10:27.281Z,37.80
2022-12-10T19:12:59.413Z,36.60
2022-12-10T19:15:31.743Z,37.60
2022-12-10T19:18:04.575Z,32.20
2022-12-10T19:20:37.146Z,32.00
2022-12-10T19:23:09.392Z,18.00
2022-12-10T19:25:41.458Z,19.20
2022-12-10T19:28:19.362Z,18.80
2022-12-10T19:30:52.531Z,16.10
2022-12-10T19:33:24.849Z,14.40
2022-12-10T19:35:57.273Z,15.80
2022-12-10T19:38:29.522Z,15.40
2022-12-10T19:41:01.662Z,15.80
2022-12-10T19:43:33.727Z,17.10
2022-12-10T19:46:13.011Z,20.90
2022-12-10T19:48:45.999Z,18.00
2022-12-10T19:51:18.486Z,20.70
2022-12-10T19:53:55.143Z,23.20
2022-12-10T19:56:30.209Z,21.50
2022-12-10T19:59:03.963Z,23.00
2022-12-10T20:01:36.153Z,25.50
2022-12-10T20:04:08.685Z,24.10
2022-12-10T20:06:44.182Z,22.70
2022-12-10T20:09:21.007Z,18.10
2022-12-10T20:11:53.485Z,19.80
2022-12-10T20:14:26.342Z,18.70
2022-12-10T20:16:58.427Z,19.60
2022-12-10T20:19:30.577Z,17.10
2022-12-10T20:22:05.880Z,19.50
2022-12-10T20:24:38.935Z,18.20
2022-12-10T20:27:15.223Z,18.70
2022-12-10T20:29:47.415Z,18.30
2022-12-10T20:32:20.429Z,15.70
2022-12-10T20:34:52.571Z,23.30
2022-12-10T20:37:24.586Z,21.70
2022-12-10T20:40:22.350Z,26.90
2022-12-10T20:42:48.841Z,58.40
2022-12-10T20:45:21.627Z,41.80
2022-12-10T20:47:53.843Z,32.20
2022-12-10T20:50:26.167Z,20.80
2022-12-10T20:52:58.332Z,18.20
2022-12-10T20:55:30.588Z,20.60
2022-12-10T20:58:02.797Z,19.60
2022-12-10T21:00:34.938Z,25.90
2022-12-10T21:03:07.084Z,32.80
2022-12-10T21:05:39.301Z,21.30
2022-12-10T21:08:13.086Z,16.70
2022-12-10T21:10:55.008Z,21.50
2022-12-10T21:13:29.199Z,28.40
2022-12-10T21:16:03.593Z,40.00
2022-12-10T21:18:35.938Z,23.80
2022-12-10T21:21:08.419Z,17.30
2022-12-10T21:23:40.743Z,22.70
2022-12-10T21:26:14.796Z,36.70
2022-12-10T21:28:47.349Z,39.10
2022-12-10T21:31:22.311Z,47.70
2022-12-10T21:36:26.027Z,101.50
2022-12-10T21:38:58.939Z,194.60
2022-12-10T21:41:48.799Z,183.50
2022-12-10T21:44:21.096Z,655.90
2022-12-10T21:46:53.336Z,286.60
2022-12-10T21:49:25.507Z,217.10
2022-12-10T21:51:58.932Z,132.60
2022-12-10T21:54:31.354Z,104.00
2022-12-10T21:57:03.499Z,208.30
2022-12-10T21:59:35.639Z,120.50
2022-12-10T22:02:08.037Z,61.50
2022-12-10T22:04:40.650Z,43.10
2022-12-10T22:07:12.886Z,71.00
2022-12-10T22:09:44.978Z,60.00
2022-12-10T22:12:17.096Z,32.50
2022-12-10T22:14:49.211Z,26.10
2022-12-10T22:17:22.098Z,33.60
2022-12-10T22:19:54.291Z,22.90
2022-12-10T22:22:26.408Z,15.40
2022-12-10T22:24:58.549Z,15.50
2022-12-10T22:27:33.346Z,20.20
2022-12-10T22:30:08.420Z,16.10
2022-12-10T22:35:12.649Z,32.20
2022-12-10T22:37:44.848Z,18.70
2022-12-10T22:40:17.141Z,18.30
2022-12-10T22:42:49.977Z,17.40
2022-12-10T22:45:22.860Z,13.40
2022-12-10T22:47:54.977Z,14.40
2022-12-10T22:50:28.295Z,15.00
2022-12-10T22:53:00.362Z,13.10
2022-12-10T22:55:32.529Z,12.20
2022-12-10T22:58:05.857Z,12.80
2022-12-10T23:00:38.134Z,13.70
2022-12-10T23:03:10.265Z,13.60
2022-12-10T23:05:42.380Z,12.10
2022-12-10T23:08:14.597Z,12.50
2022-12-10T23:10:46.899Z,12.80
2022-12-10T23:13:22.015Z,12.60
2022-12-10T23:15:55.624Z,16.10
2022-12-10T23:18:27.880Z,17.80
2022-12-10T23:21:00.202Z,14.90
2022-12-10T23:23:32.523Z,14.50
2022-12-10T23:26:05.820Z,14.90
2022-12-10T23:28:38.012Z,14.80
2022-12-10T23:31:11.476Z,17.30
2022-12-10T23:33:44.189Z,16.50
2022-12-10T23:36:16.360Z,20.20
2022-12-10T23:38:48.604Z,19.30
2022-12-10T23:41:20.748Z,23.10
2022-12-10T23:43:57.191Z,20.50
2022-12-10T23:46:29.744Z,19.80
2022-12-10T23:49:02.244Z,15.90
2022-12-10T23:51:34.337Z,17.00
2022-12-10T23:54:06.760Z,17.50
2022-12-10T23:56:38.851Z,15.10
2022-12-10T23:59:11.300Z,15.80
